sensor_id;sensor_type;location;lat;lon;timestamp;pressure;altitude;pressure_sealevel;temperature
27986;BMP280;15453;53.692;10.168;2023-02-20T00:01:28;101663.13;;;8.94
27986;BMP280;15453;53.692;10.168;2023-02-20T00:03:54;101650.91;;;8.97
27986;BMP280;15453;53.692;10.168;2023-02-20T00:06:20;101646.06;;;8.99
27986;BMP280;15453;53.692;10.168;2023-02-20T00:08:45;101643.97;;;9.01
27986;BMP280;15453;53.692;10.168;2023-02-20T00:11:10;101642.06;;;9.01
27986;BMP280;15453;53.692;10.168;2023-02-20T00:13:35;101629.44;;;9.00
27986;BMP280;15453;53.692;10.168;2023-02-20T00:16:01;101623.94;;;9.07
27986;BMP280;15453;53.692;10.168;2023-02-20T00:18:26;101623.94;;;9.07
27986;BMP280;15453;53.692;10.168;2023-02-20T00:20:51;101604.22;;;9.05
27986;BMP280;15453;53.692;10.168;2023-02-20T00:23:17;101601.50;;;9.05
27986;BMP280;15453;53.692;10.168;2023-02-20T00:25:42;101584.88;;;9.06
27986;BMP280;15453;53.692;10.168;2023-02-20T00:28:07;101581.69;;;9.09
27986;BMP280;15453;53.692;10.168;2023-02-20T00:30:32;101581.69;;;9.09
27986;BMP280;15453;53.692;10.168;2023-02-20T00:32:58;101561.94;;;9.07
27986;BMP280;15453;53.692;10.168;2023-02-20T00:35:25;101552.47;;;9.10
27986;BMP280;15453;53.692;10.168;2023-02-20T00:37:51;101550.56;;;9.10
27986;BMP280;15453;53.692;10.168;2023-02-20T00:40:18;101545.72;;;9.12
27986;BMP280;15453;53.692;10.168;2023-02-20T00:42:44;101529.34;;;9.12
27986;BMP280;15453;53.692;10.168;2023-02-20T00:45:10;101528.47;;;9.12
27986;BMP280;15453;53.692;10.168;2023-02-20T00:47:37;101519.25;;;9.13
27986;BMP280;15453;53.692;10.168;2023-02-20T00:50:03;101523.88;;;9.12
27986;BMP280;15453;53.692;10.168;2023-02-20T00:52:28;101512.09;;;9.12
27986;BMP280;15453;53.692;10.168;2023-02-20T00:54:54;101502.00;;;9.12
27986;BMP280;15453;53.692;10.168;2023-02-20T00:57:19;101494.41;;;9.14
27986;BMP280;15453;53.692;10.168;2023-02-20T00:59:44;101494.41;;;9.14
27986;BMP280;15453;53.692;10.168;2023-02-20T01:02:10;101480.13;;;9.12
27986;BMP280;15453;53.692;10.168;2023-02-20T01:04:35;101493.16;;;9.10
27986;BMP280;15453;53.692;10.168;2023-02-20T01:07:00;101486.88;;;9.10
27986;BMP280;15453;53.692;10.168;2023-02-20T01:09:25;101494.88;;;9.11
27986;BMP280;15453;53.692;10.168;2023-02-20T01:11:52;101494.88;;;9.11
27986;BMP280;15453;53.692;10.168;2023-02-20T01:14:18;101498.19;;;9.13
27986;BMP280;15453;53.692;10.168;2023-02-20T01:16:44;101486.19;;;9.14
27986;BMP280;15453;53.692;10.168;2023-02-20T01:19:10;101494.66;;;9.13
27986;BMP280;15453;53.692;10.168;2023-02-20T01:21:35;101486.19;;;9.14
27986;BMP280;15453;53.692;10.168;2023-02-20T01:24:01;101487.91;;;9.15
27986;BMP280;15453;53.692;10.168;2023-02-20T01:26:26;101484.94;;;9.17
27986;BMP280;15453;53.692;10.168;2023-02-20T01:28:51;101477.34;;;9.19
27986;BMP280;15453;53.692;10.168;2023-02-20T01:31:16;101477.34;;;9.19
27986;BMP280;15453;53.692;10.168;2023-02-20T01:33:42;101477.56;;;9.17
27986;BMP280;15453;53.692;10.168;2023-02-20T01:36:08;101460.94;;;9.19
27986;BMP280;15453;53.692;10.168;2023-02-20T01:38:34;101460.72;;;9.20
27986;BMP280;15453;53.692;10.168;2023-02-20T01:40:59;101457.78;;;9.22
27986;BMP280;15453;53.692;10.168;2023-02-20T01:43:24;101449.75;;;9.27
27986;BMP280;15453;53.692;10.168;2023-02-20T01:45:50;101449.75;;;9.27
27986;BMP280;15453;53.692;10.168;2023-02-20T01:48:24;101440.91;;;9.25
27986;BMP280;15453;53.692;10.168;2023-02-20T01:50:54;101427.50;;;9.23
27986;BMP280;15453;53.692;10.168;2023-02-20T01:53:22;101422.63;;;9.25
27986;BMP280;15453;53.692;10.168;2023-02-20T01:55:59;101415.06;;;9.27
27986;BMP280;15453;53.692;10.168;2023-02-20T01:58:46;101405.78;;;9.28
27986;BMP280;15453;53.692;10.168;2023-02-20T02:01:13;101408.31;;;9.30
27986;BMP280;15453;53.692;10.168;2023-02-20T02:03:40;101396.69;;;9.34
27986;BMP280;15453;53.692;10.168;2023-02-20T02:06:08;101380.28;;;9.34
27986;BMP280;15453;53.692;10.168;2023-02-20T02:08:36;101364.50;;;9.36
27986;BMP280;15453;53.692;10.168;2023-02-20T02:13:28;101356.28;;;9.36
27986;BMP280;15453;53.692;10.168;2023-02-20T02:18:37;101362.13;;;9.40
27986;BMP280;15453;53.692;10.168;2023-02-20T02:27:14;101358.50;;;9.46
27986;BMP280;15453;53.692;10.168;2023-02-20T02:35:20;101345.44;;;9.48
27986;BMP280;15453;53.692;10.168;2023-02-20T02:38:02;101358.25;;;9.47
27986;BMP280;15453;53.692;10.168;2023-02-20T02:40:42;101358.66;;;9.51
27986;BMP280;15453;53.692;10.168;2023-02-20T02:43:10;101351.91;;;9.53
27986;BMP280;15453;53.692;10.168;2023-02-20T02:45:38;101338.00;;;9.55
27986;BMP280;15453;53.692;10.168;2023-02-20T02:50:54;101328.72;;;9.56
27986;BMP280;15453;53.692;10.168;2023-02-20T02:53:21;101310.44;;;9.56
27986;BMP280;15453;53.692;10.168;2023-02-20T02:55:46;101311.47;;;9.55
27986;BMP280;15453;53.692;10.168;2023-02-20T02:58:12;101298.66;;;9.56
27986;BMP280;15453;53.692;10.168;2023-02-20T03:00:45;101287.72;;;9.56
27986;BMP280;15453;53.692;10.168;2023-02-20T03:03:19;101304.13;;;9.56
27986;BMP280;15453;53.692;10.168;2023-02-20T03:05:57;101313.75;;;9.58
27986;BMP280;15453;53.692;10.168;2023-02-20T03:08:36;101309.38;;;9.57
27986;BMP280;15453;53.692;10.168;2023-02-20T03:11:11;101313.16;;;9.56
27986;BMP280;15453;53.692;10.168;2023-02-20T03:14:22;101309.13;;;9.59
27986;BMP280;15453;53.692;10.168;2023-02-20T03:17:00;101308.91;;;9.60
27986;BMP280;15453;53.692;10.168;2023-02-20T03:19:32;101306.63;;;9.57
27986;BMP280;15453;53.692;10.168;2023-02-20T03:22:01;101312.69;;;9.59
27986;BMP280;15453;53.692;10.168;2023-02-20T03:24:27;101319.59;;;9.62
27986;BMP280;15453;53.692;10.168;2023-02-20T03:26:55;101322.59;;;9.60
27986;BMP280;15453;53.692;10.168;2023-02-20T03:29:31;101301.28;;;9.62
27986;BMP280;15453;53.692;10.168;2023-02-20T03:32:06;101302.16;;;9.63
27986;BMP280;15453;53.692;10.168;2023-02-20T03:34:54;101299.63;;;9.61
27986;BMP280;15453;53.692;10.168;2023-02-20T03:37:41;101302.16;;;9.63
27986;BMP280;15453;53.692;10.168;2023-02-20T03:40:26;101289.69;;;9.67
27986;BMP280;15453;53.692;10.168;2023-02-20T03:43:15;101289.69;;;9.67
27986;BMP280;15453;53.692;10.168;2023-02-20T03:45:57;101283.38;;;9.66
27986;BMP280;15453;53.692;10.168;2023-02-20T03:48:28;101271.34;;;9.67
27986;BMP280;15453;53.692;10.168;2023-02-20T03:50:54;101275.75;;;9.68
27986;BMP280;15453;53.692;10.168;2023-02-20T03:53:20;101277.22;;;9.71
27986;BMP280;15453;53.692;10.168;2023-02-20T03:55:47;101274.22;;;9.72
27986;BMP280;15453;53.692;10.168;2023-02-20T03:58:15;101294.00;;;9.74
27986;BMP280;15453;53.692;10.168;2023-02-20T04:00:45;101286.88;;;9.73
27986;BMP280;15453;53.692;10.168;2023-02-20T04:03:16;101270.19;;;9.75
27986;BMP280;15453;53.692;10.168;2023-02-20T04:05:46;101261.75;;;9.76
27986;BMP280;15453;53.692;10.168;2023-02-20T04:08:15;101269.75;;;9.78
27986;BMP280;15453;53.692;10.168;2023-02-20T04:10:55;101262.97;;;9.80
27986;BMP280;15453;53.692;10.168;2023-02-20T04:13:22;101250.59;;;9.78
27986;BMP280;15453;53.692;10.168;2023-02-20T04:15:48;101238.97;;;9.82
27986;BMP280;15453;53.692;10.168;2023-02-20T04:18:16;101224.44;;;9.82
27986;BMP280;15453;53.692;10.168;2023-02-20T04:20:44;101218.50;;;9.85
27986;BMP280;15453;53.692;10.168;2023-02-20T04:23:15;101218.50;;;9.85
27986;BMP280;15453;53.692;10.168;2023-02-20T04:25:45;101210.75;;;9.82
27986;BMP280;15453;53.692;10.168;2023-02-20T04:28:13;101188.28;;;9.80
27986;BMP280;15453;53.692;10.168;2023-02-20T04:30:38;101204.69;;;9.80
27986;BMP280;15453;53.692;10.168;2023-02-20T04:33:04;101204.69;;;9.80
27986;BMP280;15453;53.692;10.168;2023-02-20T04:35:29;101198.84;;;9.76
27986;BMP280;15453;53.692;10.168;2023-02-20T04:37:54;101203.72;;;9.74
27986;BMP280;15453;53.692;10.168;2023-02-20T04:40:22;101205.38;;;9.75
27986;BMP280;15453;53.692;10.168;2023-02-20T04:42:47;101191.72;;;9.75
27986;BMP280;15453;53.692;10.168;2023-02-20T04:45:13;101190.88;;;9.75
27986;BMP280;15453;53.692;10.168;2023-02-20T04:47:38;101171.50;;;9.76
27986;BMP280;15453;53.692;10.168;2023-02-20T04:50:04;101171.50;;;9.76
27986;BMP280;15453;53.692;10.168;2023-02-20T04:52:29;101174.22;;;9.76
27986;BMP280;15453;53.692;10.168;2023-02-20T04:54:55;101174.22;;;9.76
27986;BMP280;15453;53.692;10.168;2023-02-20T04:57:21;101174.94;;;9.72
27986;BMP280;15453;53.692;10.168;2023-02-20T04:59:46;101172.78;;;9.74
27986;BMP280;15453;53.692;10.168;2023-02-20T05:02:12;101175.53;;;9.74
27986;BMP280;15453;53.692;10.168;2023-02-20T05:04:37;101197.19;;;9.75
27986;BMP280;15453;53.692;10.168;2023-02-20T05:07:02;101197.19;;;9.75
27986;BMP280;15453;53.692;10.168;2023-02-20T05:09:28;101167.56;;;9.72
27986;BMP280;15453;53.692;10.168;2023-02-20T05:11:53;101178.03;;;9.75
27986;BMP280;15453;53.692;10.168;2023-02-20T05:14:20;101169.00;;;9.75
27986;BMP280;15453;53.692;10.168;2023-02-20T05:16:46;101144.13;;;9.76
27986;BMP280;15453;53.692;10.168;2023-02-20T05:19:13;101146.88;;;9.76
27986;BMP280;15453;53.692;10.168;2023-02-20T05:21:43;101152.97;;;9.78
27986;BMP280;15453;53.692;10.168;2023-02-20T05:24:26;101150.00;;;9.80
27986;BMP280;15453;53.692;10.168;2023-02-20T05:26:53;101136.91;;;9.82
27986;BMP280;15453;53.692;10.168;2023-02-20T05:29:19;101141.78;;;9.80
27986;BMP280;15453;53.692;10.168;2023-02-20T05:31:44;101127.88;;;9.81
27986;BMP280;15453;53.692;10.168;2023-02-20T05:34:09;101129.66;;;9.87
27986;BMP280;15453;53.692;10.168;2023-02-20T05:36:35;101129.66;;;9.87
27986;BMP280;15453;53.692;10.168;2023-02-20T05:39:00;101109.94;;;9.85
27986;BMP280;15453;53.692;10.168;2023-02-20T05:41:26;101106.25;;;9.91
27986;BMP280;15453;53.692;10.168;2023-02-20T05:43:51;101106.25;;;9.91
27986;BMP280;15453;53.692;10.168;2023-02-20T05:46:18;101094.09;;;9.87
27986;BMP280;15453;53.692;10.168;2023-02-20T05:48:47;101082.69;;;9.90
27986;BMP280;15453;53.692;10.168;2023-02-20T05:51:28;101080.53;;;9.92
27986;BMP280;15453;53.692;10.168;2023-02-20T05:53:54;101064.34;;;9.91
27986;BMP280;15453;53.692;10.168;2023-02-20T05:56:20;101070.44;;;9.93
27986;BMP280;15453;53.692;10.168;2023-02-20T05:58:46;101075.19;;;9.97
27986;BMP280;15453;53.692;10.168;2023-02-20T06:01:19;101070.78;;;9.96
27986;BMP280;15453;53.692;10.168;2023-02-20T06:03:44;101052.25;;;9.98
27986;BMP280;15453;53.692;10.168;2023-02-20T06:06:10;101053.66;;;10.01
27986;BMP280;15453;53.692;10.168;2023-02-20T06:08:35;101057.22;;;10.01
27986;BMP280;15453;53.692;10.168;2023-02-20T06:11:00;101047.97;;;10.02
27986;BMP280;15453;53.692;10.168;2023-02-20T06:13:25;101051.75;;;10.01
27986;BMP280;15453;53.692;10.168;2023-02-20T06:15:51;101054.03;;;10.04
27986;BMP280;15453;53.692;10.168;2023-02-20T06:18:16;101053.81;;;10.06
27986;BMP280;15453;53.692;10.168;2023-02-20T06:20:41;101049.41;;;10.05
27986;BMP280;15453;53.692;10.168;2023-02-20T06:23:06;101051.09;;;10.06
27986;BMP280;15453;53.692;10.168;2023-02-20T06:25:31;101049.41;;;10.05
27986;BMP280;15453;53.692;10.168;2023-02-20T06:27:57;101049.19;;;10.06
27986;BMP280;15453;53.692;10.168;2023-02-20T06:30:22;101051.66;;;10.08
27986;BMP280;15453;53.692;10.168;2023-02-20T06:32:47;101054.41;;;10.08
27986;BMP280;15453;53.692;10.168;2023-02-20T06:35:12;101045.94;;;10.09
27986;BMP280;15453;53.692;10.168;2023-02-20T06:37:38;101044.28;;;10.08
27986;BMP280;15453;53.692;10.168;2023-02-20T06:40:04;101037.75;;;10.09
27986;BMP280;15453;53.692;10.168;2023-02-20T06:42:29;101032.03;;;10.11
27986;BMP280;15453;53.692;10.168;2023-02-20T06:44:55;101041.91;;;10.12
27986;BMP280;15453;53.692;10.168;2023-02-20T06:47:21;101048.78;;;10.14
27986;BMP280;15453;53.692;10.168;2023-02-20T06:49:46;101054.66;;;10.18
27986;BMP280;15453;53.692;10.168;2023-02-20T06:52:11;101050.72;;;10.25
27986;BMP280;15453;53.692;10.168;2023-02-20T06:54:37;101050.72;;;10.25
27986;BMP280;15453;53.692;10.168;2023-02-20T06:57:03;101042.50;;;10.25
27986;BMP280;15453;53.692;10.168;2023-02-20T06:59:28;101047.72;;;10.27
27986;BMP280;15453;53.692;10.168;2023-02-20T07:01:53;101050.22;;;10.28
27986;BMP280;15453;53.692;10.168;2023-02-20T07:04:21;101051.66;;;10.31
27986;BMP280;15453;53.692;10.168;2023-02-20T07:06:47;101058.91;;;10.37
27986;BMP280;15453;53.692;10.168;2023-02-20T07:09:13;101058.91;;;10.37
27986;BMP280;15453;53.692;10.168;2023-02-20T07:11:38;101059.41;;;10.34
27986;BMP280;15453;53.692;10.168;2023-02-20T07:14:04;101061.63;;;10.37
27986;BMP280;15453;53.692;10.168;2023-02-20T07:16:30;101055.69;;;10.40
27986;BMP280;15453;53.692;10.168;2023-02-20T07:18:56;101062.81;;;10.41
27986;BMP280;15453;53.692;10.168;2023-02-20T07:21:22;101063.19;;;10.44
27986;BMP280;15453;53.692;10.168;2023-02-20T07:23:47;101057.72;;;10.44
27986;BMP280;15453;53.692;10.168;2023-02-20T07:26:20;101049.25;;;10.46
27986;BMP280;15453;53.692;10.168;2023-02-20T07:28:46;101042.47;;;10.48
27986;BMP280;15453;53.692;10.168;2023-02-20T07:31:12;101049.59;;;10.49
27986;BMP280;15453;53.692;10.168;2023-02-20T07:33:37;101050.19;;;10.51
27986;BMP280;15453;53.692;10.168;2023-02-20T07:36:03;101046.38;;;10.52
27986;BMP280;15453;53.692;10.168;2023-02-20T07:38:28;101042.44;;;10.60
27986;BMP280;15453;53.692;10.168;2023-02-20T07:40:53;101042.44;;;10.60
27986;BMP280;15453;53.692;10.168;2023-02-20T07:43:19;101059.09;;;10.58
27986;BMP280;15453;53.692;10.168;2023-02-20T07:45:44;101059.72;;;10.60
27986;BMP280;15453;53.692;10.168;2023-02-20T07:48:09;101029.31;;;10.62
27986;BMP280;15453;53.692;10.168;2023-02-20T07:50:35;101010.28;;;10.67
27986;BMP280;15453;53.692;10.168;2023-02-20T07:53:00;101010.28;;;10.67
27986;BMP280;15453;53.692;10.168;2023-02-20T07:55:25;101003.09;;;10.66
27986;BMP280;15453;53.692;10.168;2023-02-20T07:57:51;101009.28;;;10.73
27986;BMP280;15453;53.692;10.168;2023-02-20T08:00:19;101009.28;;;10.73
27986;BMP280;15453;53.692;10.168;2023-02-20T08:02:45;101001.31;;;10.71
27986;BMP280;15453;53.692;10.168;2023-02-20T08:05:10;101011.19;;;10.72
27986;BMP280;15453;53.692;10.168;2023-02-20T08:07:36;101011.78;;;10.74
27986;BMP280;15453;53.692;10.168;2023-02-20T08:10:02;100999.75;;;10.75
27986;BMP280;15453;53.692;10.168;2023-02-20T08:12:27;100994.13;;;10.82
27986;BMP280;15453;53.692;10.168;2023-02-20T08:14:52;100994.13;;;10.82
27986;BMP280;15453;53.692;10.168;2023-02-20T08:17:18;100995.78;;;10.83
27986;BMP280;15453;53.692;10.168;2023-02-20T08:19:43;100981.25;;;10.82
27986;BMP280;15453;53.692;10.168;2023-02-20T08:22:08;100982.44;;;10.86
27986;BMP280;15453;53.692;10.168;2023-02-20T08:24:34;100982.44;;;10.86
27986;BMP280;15453;53.692;10.168;2023-02-20T08:26:59;100975.63;;;10.89
27986;BMP280;15453;53.692;10.168;2023-02-20T08:29:24;100978.13;;;10.90
27986;BMP280;15453;53.692;10.168;2023-02-20T08:31:49;100974.88;;;10.93
27986;BMP280;15453;53.692;10.168;2023-02-20T08:34:15;100976.66;;;10.99
27986;BMP280;15453;53.692;10.168;2023-02-20T08:36:40;100976.66;;;10.99
27986;BMP280;15453;53.692;10.168;2023-02-20T08:39:05;100960.13;;;10.94
27986;BMP280;15453;53.692;10.168;2023-02-20T08:41:31;100962.34;;;10.97
27986;BMP280;15453;53.692;10.168;2023-02-20T08:43:56;100953.63;;;11.00
27986;BMP280;15453;53.692;10.168;2023-02-20T08:46:21;100955.06;;;11.03
27986;BMP280;15453;53.692;10.168;2023-02-20T08:48:47;100954.06;;;11.09
27986;BMP280;15453;53.692;10.168;2023-02-20T08:51:12;100971.94;;;11.11
27986;BMP280;15453;53.692;10.168;2023-02-20T08:53:38;100971.94;;;11.11
27986;BMP280;15453;53.692;10.168;2023-02-20T08:56:06;100956.81;;;11.09
27986;BMP280;15453;53.692;10.168;2023-02-20T08:58:31;100952.25;;;11.14
27986;BMP280;15453;53.692;10.168;2023-02-20T09:00:57;100952.25;;;11.14
27986;BMP280;15453;53.692;10.168;2023-02-20T09:03:22;100940.44;;;11.14
27986;BMP280;15453;53.692;10.168;2023-02-20T09:05:48;100925.41;;;11.16
27986;BMP280;15453;53.692;10.168;2023-02-20T09:08:14;100920.50;;;11.18
27986;BMP280;15453;53.692;10.168;2023-02-20T09:10:39;100917.19;;;11.16
27986;BMP280;15453;53.692;10.168;2023-02-20T09:13:04;100913.97;;;11.19
27986;BMP280;15453;53.692;10.168;2023-02-20T09:15:30;100907.41;;;11.20
27986;BMP280;15453;53.692;10.168;2023-02-20T09:17:59;100900.56;;;11.23
27986;BMP280;15453;53.692;10.168;2023-02-20T09:20:25;100910.88;;;11.16
27986;BMP280;15453;53.692;10.168;2023-02-20T09:22:50;100902.00;;;11.25
27986;BMP280;15453;53.692;10.168;2023-02-20T09:25:17;100922.59;;;11.28
27986;BMP280;15453;53.692;10.168;2023-02-20T09:27:42;100904.06;;;11.35
27986;BMP280;15453;53.692;10.168;2023-02-20T09:30:09;100904.06;;;11.35
27986;BMP280;15453;53.692;10.168;2023-02-20T09:32:35;100891.94;;;11.31
27986;BMP280;15453;53.692;10.168;2023-02-20T09:35:01;100903.22;;;11.34
27986;BMP280;15453;53.692;10.168;2023-02-20T09:37:26;100899.44;;;11.35
27986;BMP280;15453;53.692;10.168;2023-02-20T09:39:51;100894.25;;;11.39
27986;BMP280;15453;53.692;10.168;2023-02-20T09:42:22;100899.25;;;11.42
27986;BMP280;15453;53.692;10.168;2023-02-20T09:50:00;100905.13;;;11.50
27986;BMP280;15453;53.692;10.168;2023-02-20T09:52:28;100890.66;;;11.55
27986;BMP280;15453;53.692;10.168;2023-02-20T09:55:01;100891.72;;;11.54
27986;BMP280;15453;53.692;10.168;2023-02-20T09:57:28;100905.19;;;11.55
27986;BMP280;15453;53.692;10.168;2023-02-20T10:00:12;100897.56;;;11.57
27986;BMP280;15453;53.692;10.168;2023-02-20T10:03:11;100882.84;;;11.63
27986;BMP280;15453;53.692;10.168;2023-02-20T10:05:37;100882.84;;;11.63
27986;BMP280;15453;53.692;10.168;2023-02-20T10:08:03;100878.22;;;11.64
27986;BMP280;15453;53.692;10.168;2023-02-20T10:10:31;100887.84;;;11.66
27986;BMP280;15453;53.692;10.168;2023-02-20T10:16:15;100882.41;;;11.71
27986;BMP280;15453;53.692;10.168;2023-02-20T10:18:59;100885.66;;;11.68
27986;BMP280;15453;53.692;10.168;2023-02-20T10:24:39;100875.09;;;11.77
27986;BMP280;15453;53.692;10.168;2023-02-20T10:27:52;100897.16;;;11.87
27986;BMP280;15453;53.692;10.168;2023-02-20T10:30:33;100897.16;;;11.87
27986;BMP280;15453;53.692;10.168;2023-02-20T10:33:14;100887.53;;;11.84
27986;BMP280;15453;53.692;10.168;2023-02-20T10:35:46;100881.63;;;11.93
27986;BMP280;15453;53.692;10.168;2023-02-20T10:38:15;100872.81;;;11.91
27986;BMP280;15453;53.692;10.168;2023-02-20T10:40:45;100867.63;;;11.94
27986;BMP280;15453;53.692;10.168;2023-02-20T10:43:27;100869.03;;;11.97
27986;BMP280;15453;53.692;10.168;2023-02-20T10:48:50;100870.84;;;12.08
27986;BMP280;15453;53.692;10.168;2023-02-20T10:51:29;100870.84;;;12.08
27986;BMP280;15453;53.692;10.168;2023-02-20T10:54:16;100874.69;;;12.07
27986;BMP280;15453;53.692;10.168;2023-02-20T11:00:15;100875.81;;;12.11
27986;BMP280;15453;53.692;10.168;2023-02-20T11:02:20;100869.53;;;12.15
27986;BMP280;15453;53.692;10.168;2023-02-20T11:05:00;100860.00;;;12.23
27986;BMP280;15453;53.692;10.168;2023-02-20T11:07:27;100862.22;;;12.21
27986;BMP280;15453;53.692;10.168;2023-02-20T11:09:52;100862.50;;;12.24
27986;BMP280;15453;53.692;10.168;2023-02-20T11:15:00;100859.00;;;12.29
27986;BMP280;15453;53.692;10.168;2023-02-20T11:17:29;100866.19;;;12.35
27986;BMP280;15453;53.692;10.168;2023-02-20T11:19:56;100860.78;;;12.40
27986;BMP280;15453;53.692;10.168;2023-02-20T11:22:41;100874.56;;;12.45
27986;BMP280;15453;53.692;10.168;2023-02-20T11:27:39;100849.63;;;12.51
27986;BMP280;15453;53.692;10.168;2023-02-20T11:32:40;100852.44;;;12.56
27986;BMP280;15453;53.692;10.168;2023-02-20T11:37:44;100841.75;;;12.60
27986;BMP280;15453;53.692;10.168;2023-02-20T11:42:44;100837.13;;;12.65
27986;BMP280;15453;53.692;10.168;2023-02-20T11:45:25;100839.38;;;12.68
27986;BMP280;15453;53.692;10.168;2023-02-20T11:48:07;100812.50;;;12.75
27986;BMP280;15453;53.692;10.168;2023-02-20T11:50:38;100812.50;;;12.75
27986;BMP280;15453;53.692;10.168;2023-02-20T11:53:05;100819.31;;;12.73
27986;BMP280;15453;53.692;10.168;2023-02-20T11:55:32;100810.34;;;12.82
27986;BMP280;15453;53.692;10.168;2023-02-20T11:57:58;100818.34;;;12.84
27986;BMP280;15453;53.692;10.168;2023-02-20T12:00:26;100825.47;;;12.85
27986;BMP280;15453;53.692;10.168;2023-02-20T12:05:50;100802.72;;;12.89
27986;BMP280;15453;53.692;10.168;2023-02-20T12:08:46;100798.41;;;12.98
27986;BMP280;15453;53.692;10.168;2023-02-20T12:11:22;100798.41;;;12.98
27986;BMP280;15453;53.692;10.168;2023-02-20T12:13:50;100793.41;;;12.95
27986;BMP280;15453;53.692;10.168;2023-02-20T12:19:42;100783.06;;;13.02
27986;BMP280;15453;53.692;10.168;2023-02-20T12:22:03;100799.53;;;12.97
27986;BMP280;15453;53.692;10.168;2023-02-20T12:24:54;100791.31;;;13.02
27986;BMP280;15453;53.692;10.168;2023-02-20T12:27:38;100794.34;;;13.06
27986;BMP280;15453;53.692;10.168;2023-02-20T12:32:56;100774.03;;;13.07
27986;BMP280;15453;53.692;10.168;2023-02-20T12:38:15;100777.31;;;13.09
27986;BMP280;15453;53.692;10.168;2023-02-20T12:43:43;100782.91;;;13.19
27986;BMP280;15453;53.692;10.168;2023-02-20T12:46:27;100781.50;;;13.16
27986;BMP280;15453;53.692;10.168;2023-02-20T12:52:24;100774.06;;;13.12
27986;BMP280;15453;53.692;10.168;2023-02-20T12:54:56;100766.34;;;13.14
27986;BMP280;15453;53.692;10.168;2023-02-20T13:00:14;100768.06;;;13.20
27986;BMP280;15453;53.692;10.168;2023-02-20T13:02:46;100771.63;;;13.20
27986;BMP280;15453;53.692;10.168;2023-02-20T13:05:16;100765.59;;;13.23
27986;BMP280;15453;53.692;10.168;2023-02-20T13:07:54;100785.69;;;13.24
27986;BMP280;15453;53.692;10.168;2023-02-20T13:10:29;100783.19;;;13.22
27986;BMP280;15453;53.692;10.168;2023-02-20T13:12:55;100779.09;;;13.30
27986;BMP280;15453;53.692;10.168;2023-02-20T13:15:42;100768.63;;;13.27
27986;BMP280;15453;53.692;10.168;2023-02-20T13:18:31;100768.63;;;13.27
27986;BMP280;15453;53.692;10.168;2023-02-20T13:21:05;100778.59;;;13.33
27986;BMP280;15453;53.692;10.168;2023-02-20T13:23:35;100778.59;;;13.33
27986;BMP280;15453;53.692;10.168;2023-02-20T13:26:01;100779.97;;;13.35
27986;BMP280;15453;53.692;10.168;2023-02-20T13:28:33;100768.09;;;13.30
27986;BMP280;15453;53.692;10.168;2023-02-20T13:33:32;100764.00;;;13.37
27986;BMP280;15453;53.692;10.168;2023-02-20T13:36:00;100758.25;;;13.39
27986;BMP280;15453;53.692;10.168;2023-02-20T13:38:27;100760.47;;;13.42
27986;BMP280;15453;53.692;10.168;2023-02-20T13:45:46;100748.63;;;13.41
27986;BMP280;15453;53.692;10.168;2023-02-20T13:49:01;100765.69;;;13.38
27986;BMP280;15453;53.692;10.168;2023-02-20T13:56:45;100762.13;;;13.43
27986;BMP280;15453;53.692;10.168;2023-02-20T13:59:15;100762.13;;;13.43
27986;BMP280;15453;53.692;10.168;2023-02-20T14:02:02;100764.06;;;13.42
27986;BMP280;15453;53.692;10.168;2023-02-20T14:04:28;100754.72;;;13.43
27986;BMP280;15453;53.692;10.168;2023-02-20T14:06:55;100753.09;;;13.47
27986;BMP280;15453;53.692;10.168;2023-02-20T14:09:23;100762.47;;;13.51
27986;BMP280;15453;53.692;10.168;2023-02-20T14:11:52;100773.72;;;13.50
27986;BMP280;15453;53.692;10.168;2023-02-20T14:14:27;100757.50;;;13.53
27986;BMP280;15453;53.692;10.168;2023-02-20T14:17:02;100764.63;;;13.49
27986;BMP280;15453;53.692;10.168;2023-02-20T14:19:28;100767.38;;;13.49
27986;BMP280;15453;53.692;10.168;2023-02-20T14:21:54;100787.22;;;13.51
27986;BMP280;15453;53.692;10.168;2023-02-20T14:24:27;100761.34;;;13.52
27986;BMP280;15453;53.692;10.168;2023-02-20T14:26:54;100769.09;;;13.55
27986;BMP280;15453;53.692;10.168;2023-02-20T14:29:32;100785.31;;;13.57
27986;BMP280;15453;53.692;10.168;2023-02-20T14:32:00;100750.09;;;13.54
27986;BMP280;15453;53.692;10.168;2023-02-20T14:34:55;100763.56;;;13.55
27986;BMP280;15453;53.692;10.168;2023-02-20T14:37:29;100767.44;;;13.54
27986;BMP280;15453;53.692;10.168;2023-02-20T14:40:42;100744.31;;;13.55
27986;BMP280;15453;53.692;10.168;2023-02-20T14:43:15;100750.63;;;13.56
27986;BMP280;15453;53.692;10.168;2023-02-20T14:45:43;100753.13;;;13.57
27986;BMP280;15453;53.692;10.168;2023-02-20T14:48:24;100782.31;;;13.63
27986;BMP280;15453;53.692;10.168;2023-02-20T14:51:23;100761.09;;;13.59
27986;BMP280;15453;53.692;10.168;2023-02-20T14:53:57;100783.41;;;13.62
27986;BMP280;15453;53.692;10.168;2023-02-20T14:56:23;100761.94;;;13.54
27986;BMP280;15453;53.692;10.168;2023-02-20T14:58:48;100774.00;;;13.53
27986;BMP280;15453;53.692;10.168;2023-02-20T15:04:10;100761.59;;;13.46
27986;BMP280;15453;53.692;10.168;2023-02-20T15:06:37;100771.50;;;13.47
27986;BMP280;15453;53.692;10.168;2023-02-20T15:09:04;100751.97;;;13.43
27986;BMP280;15453;53.692;10.168;2023-02-20T15:11:31;100768.47;;;13.43
27986;BMP280;15453;53.692;10.168;2023-02-20T15:13:56;100768.47;;;13.43
27986;BMP280;15453;53.692;10.168;2023-02-20T15:16:25;100756.94;;;13.46
27986;BMP280;15453;53.692;10.168;2023-02-20T15:18:51;100774.22;;;13.42
27986;BMP280;15453;53.692;10.168;2023-02-20T15:21:37;100765.13;;;13.41
27986;BMP280;15453;53.692;10.168;2023-02-20T15:24:12;100766.22;;;13.35
27986;BMP280;15453;53.692;10.168;2023-02-20T15:26:37;100766.72;;;13.27
27986;BMP280;15453;53.692;10.168;2023-02-20T15:29:24;100768.41;;;13.33